Terminal Aerodrome Forecast
Issued by NWS

Home | Current Version | Previous Version | Text Only | Print | Product List | Glossary On
Versions: 1 2 3 4 5 6 7 8 9 10 11 12 13 14 15 16 17
000
FTUS46 KLOX 222300
TAFBUR
TAF
KBUR 222335Z 2300/2324 17009KT P6SM SKC
     FM230300 13006KT P6SM SKC
     FM231000 VRB03KT 5SM BR OVC007
     FM231700 VRB03KT 5SM HZ SKC
     FM232000 16009KT P6SM SKC=

USA.gov is the U.S. government's official web portal to all federal, state and local government web resources and services.